sensor_id;sensor_type;location;lat;lon;timestamp;P1;durP1;ratioP1;P2;durP2;ratioP2
73672;SDS011;61972;19.480;-99.240;2023-05-07T00:02:16;29.10;;;18.50;;
73672;SDS011;61972;19.480;-99.240;2023-05-07T00:04:42;31.38;;;18.58;;
73672;SDS011;61972;19.480;-99.240;2023-05-07T00:07:09;34.75;;;19.20;;
73672;SDS011;61972;19.480;-99.240;2023-05-07T00:09:35;29.70;;;18.50;;
73672;SDS011;61972;19.480;-99.240;2023-05-07T00:12:02;28.52;;;17.70;;
73672;SDS011;61972;19.480;-99.240;2023-05-07T00:14:28;27.30;;;16.63;;
73672;SDS011;61972;19.480;-99.240;2023-05-07T00:16:54;24.48;;;17.65;;
73672;SDS011;61972;19.480;-99.240;2023-05-07T00:19:21;25.55;;;17.40;;
73672;SDS011;61972;19.480;-99.240;2023-05-07T00:21:47;30.30;;;17.33;;
73672;SDS011;61972;19.480;-99.240;2023-05-07T00:24:13;23.95;;;17.05;;
73672;SDS011;61972;19.480;-99.240;2023-05-07T00:26:39;24.40;;;16.20;;
73672;SDS011;61972;19.480;-99.240;2023-05-07T00:29:05;26.48;;;15.93;;
73672;SDS011;61972;19.480;-99.240;2023-05-07T00:31:31;21.70;;;16.02;;
73672;SDS011;61972;19.480;-99.240;2023-05-07T00:33:57;26.00;;;15.43;;
73672;SDS011;61972;19.480;-99.240;2023-05-07T00:36:24;21.98;;;13.50;;
73672;SDS011;61972;19.480;-99.240;2023-05-07T00:38:51;20.33;;;12.70;;
73672;SDS011;61972;19.480;-99.240;2023-05-07T00:41:17;23.02;;;12.02;;
73672;SDS011;61972;19.480;-99.240;2023-05-07T00:43:43;19.83;;;12.90;;
73672;SDS011;61972;19.480;-99.240;2023-05-07T00:46:10;17.50;;;11.57;;
73672;SDS011;61972;19.480;-99.240;2023-05-07T00:48:36;19.50;;;11.68;;
73672;SDS011;61972;19.480;-99.240;2023-05-07T00:51:03;19.47;;;11.70;;
73672;SDS011;61972;19.480;-99.240;2023-05-07T00:53:29;15.60;;;11.55;;
73672;SDS011;61972;19.480;-99.240;2023-05-07T00:55:56;17.00;;;11.80;;
73672;SDS011;61972;19.480;-99.240;2023-05-07T00:58:22;19.77;;;11.40;;
73672;SDS011;61972;19.480;-99.240;2023-05-07T01:00:50;18.23;;;11.77;;
73672;SDS011;61972;19.480;-99.240;2023-05-07T01:03:16;19.13;;;11.80;;
73672;SDS011;61972;19.480;-99.240;2023-05-07T01:05:42;17.20;;;11.48;;
73672;SDS011;61972;19.480;-99.240;2023-05-07T01:08:10;20.48;;;11.70;;
73672;SDS011;61972;19.480;-99.240;2023-05-07T01:10:36;21.05;;;12.40;;
73672;SDS011;61972;19.480;-99.240;2023-05-07T01:13:02;15.57;;;12.35;;
73672;SDS011;61972;19.480;-99.240;2023-05-07T01:15:31;14.63;;;11.73;;
73672;SDS011;61972;19.480;-99.240;2023-05-07T01:17:57;13.65;;;11.00;;
73672;SDS011;61972;19.480;-99.240;2023-05-07T01:20:26;14.05;;;11.00;;
73672;SDS011;61972;19.480;-99.240;2023-05-07T01:22:54;16.83;;;10.90;;
73672;SDS011;61972;19.480;-99.240;2023-05-07T01:25:21;14.57;;;11.93;;
73672;SDS011;61972;19.480;-99.240;2023-05-07T01:27:47;16.87;;;12.13;;
73672;SDS011;61972;19.480;-99.240;2023-05-07T01:30:14;18.90;;;13.63;;
73672;SDS011;61972;19.480;-99.240;2023-05-07T01:35:21;20.23;;;12.85;;
73672;SDS011;61972;19.480;-99.240;2023-05-07T01:37:56;15.15;;;13.15;;
73672;SDS011;61972;19.480;-99.240;2023-05-07T01:40:22;16.57;;;13.53;;
73672;SDS011;61972;19.480;-99.240;2023-05-07T01:42:50;19.08;;;14.63;;
73672;SDS011;61972;19.480;-99.240;2023-05-07T01:45:16;19.33;;;13.23;;
73672;SDS011;61972;19.480;-99.240;2023-05-07T01:47:42;17.52;;;10.98;;
73672;SDS011;61972;19.480;-99.240;2023-05-07T01:50:12;12.30;;;8.65;;
73672;SDS011;61972;19.480;-99.240;2023-05-07T01:52:42;11.67;;;6.83;;
73672;SDS011;61972;19.480;-99.240;2023-05-07T01:55:11;10.27;;;6.80;;
73672;SDS011;61972;19.480;-99.240;2023-05-07T01:57:40;10.98;;;6.68;;
73672;SDS011;61972;19.480;-99.240;2023-05-07T02:00:12;12.77;;;5.57;;
73672;SDS011;61972;19.480;-99.240;2023-05-07T02:02:39;9.65;;;6.00;;
73672;SDS011;61972;19.480;-99.240;2023-05-07T02:05:08;8.57;;;5.40;;
73672;SDS011;61972;19.480;-99.240;2023-05-07T02:07:39;9.48;;;5.43;;
73672;SDS011;61972;19.480;-99.240;2023-05-07T02:10:05;8.23;;;5.45;;
73672;SDS011;61972;19.480;-99.240;2023-05-07T02:12:34;8.55;;;6.50;;
73672;SDS011;61972;19.480;-99.240;2023-05-07T02:15:01;14.93;;;6.60;;
73672;SDS011;61972;19.480;-99.240;2023-05-07T02:17:57;9.73;;;6.60;;
73672;SDS011;61972;19.480;-99.240;2023-05-07T02:20:36;9.65;;;7.00;;
73672;SDS011;61972;19.480;-99.240;2023-05-07T02:23:04;10.50;;;7.05;;
73672;SDS011;61972;19.480;-99.240;2023-05-07T02:25:30;11.52;;;6.70;;
73672;SDS011;61972;19.480;-99.240;2023-05-07T02:28:02;10.45;;;6.78;;
73672;SDS011;61972;19.480;-99.240;2023-05-07T02:30:41;8.80;;;5.60;;
73672;SDS011;61972;19.480;-99.240;2023-05-07T02:33:07;9.88;;;6.10;;
73672;SDS011;61972;19.480;-99.240;2023-05-07T02:35:54;8.35;;;5.75;;
73672;SDS011;61972;19.480;-99.240;2023-05-07T02:38:56;9.75;;;5.80;;
73672;SDS011;61972;19.480;-99.240;2023-05-07T02:41:25;9.88;;;5.97;;
73672;SDS011;61972;19.480;-99.240;2023-05-07T02:43:56;9.60;;;5.47;;
73672;SDS011;61972;19.480;-99.240;2023-05-07T02:46:24;9.77;;;6.13;;
73672;SDS011;61972;19.480;-99.240;2023-05-07T02:48:50;9.63;;;5.75;;
73672;SDS011;61972;19.480;-99.240;2023-05-07T02:51:20;8.48;;;6.28;;
73672;SDS011;61972;19.480;-99.240;2023-05-07T02:53:49;9.05;;;6.20;;
73672;SDS011;61972;19.480;-99.240;2023-05-07T02:56:18;9.13;;;6.37;;
73672;SDS011;61972;19.480;-99.240;2023-05-07T02:58:50;8.75;;;6.07;;
73672;SDS011;61972;19.480;-99.240;2023-05-07T03:01:17;9.30;;;6.60;;
73672;SDS011;61972;19.480;-99.240;2023-05-07T03:03:46;11.07;;;6.65;;
73672;SDS011;61972;19.480;-99.240;2023-05-07T03:06:14;8.90;;;6.57;;
73672;SDS011;61972;19.480;-99.240;2023-05-07T03:08:41;9.43;;;6.70;;
73672;SDS011;61972;19.480;-99.240;2023-05-07T03:11:09;9.35;;;7.13;;
73672;SDS011;61972;19.480;-99.240;2023-05-07T03:13:35;15.90;;;8.40;;
73672;SDS011;61972;19.480;-99.240;2023-05-07T03:16:01;13.63;;;8.52;;
73672;SDS011;61972;19.480;-99.240;2023-05-07T03:18:28;11.25;;;8.10;;
73672;SDS011;61972;19.480;-99.240;2023-05-07T03:20:57;9.77;;;7.17;;
73672;SDS011;61972;19.480;-99.240;2023-05-07T03:23:23;10.90;;;7.68;;
73672;SDS011;61972;19.480;-99.240;2023-05-07T03:25:49;11.38;;;7.85;;
73672;SDS011;61972;19.480;-99.240;2023-05-07T03:28:15;11.45;;;7.47;;
73672;SDS011;61972;19.480;-99.240;2023-05-07T03:30:44;11.60;;;7.68;;
73672;SDS011;61972;19.480;-99.240;2023-05-07T03:33:10;9.53;;;6.93;;
73672;SDS011;61972;19.480;-99.240;2023-05-07T03:35:51;10.65;;;7.55;;
73672;SDS011;61972;19.480;-99.240;2023-05-07T03:38:20;10.88;;;7.30;;
73672;SDS011;61972;19.480;-99.240;2023-05-07T03:40:55;9.60;;;7.22;;
73672;SDS011;61972;19.480;-99.240;2023-05-07T03:43:21;11.27;;;7.80;;
73672;SDS011;61972;19.480;-99.240;2023-05-07T03:45:47;11.23;;;7.43;;
73672;SDS011;61972;19.480;-99.240;2023-05-07T03:48:17;14.02;;;7.47;;
73672;SDS011;61972;19.480;-99.240;2023-05-07T03:50:43;11.50;;;7.22;;
73672;SDS011;61972;19.480;-99.240;2023-05-07T03:53:09;12.40;;;7.30;;
73672;SDS011;61972;19.480;-99.240;2023-05-07T03:55:35;10.57;;;7.70;;
73672;SDS011;61972;19.480;-99.240;2023-05-07T03:58:01;10.73;;;7.70;;
73672;SDS011;61972;19.480;-99.240;2023-05-07T04:00:27;9.38;;;6.95;;
73672;SDS011;61972;19.480;-99.240;2023-05-07T04:02:53;10.88;;;7.32;;
73672;SDS011;61972;19.480;-99.240;2023-05-07T04:05:19;9.15;;;6.60;;
73672;SDS011;61972;19.480;-99.240;2023-05-07T04:07:45;9.60;;;6.72;;
73672;SDS011;61972;19.480;-99.240;2023-05-07T04:10:12;9.23;;;6.60;;
73672;SDS011;61972;19.480;-99.240;2023-05-07T04:12:38;9.07;;;6.30;;
73672;SDS011;61972;19.480;-99.240;2023-05-07T04:15:05;8.70;;;6.70;;
73672;SDS011;61972;19.480;-99.240;2023-05-07T04:17:31;12.02;;;6.88;;
73672;SDS011;61972;19.480;-99.240;2023-05-07T04:19:59;7.90;;;6.20;;
73672;SDS011;61972;19.480;-99.240;2023-05-07T04:22:28;8.63;;;5.73;;
73672;SDS011;61972;19.480;-99.240;2023-05-07T04:24:55;8.10;;;5.90;;
73672;SDS011;61972;19.480;-99.240;2023-05-07T04:27:21;8.20;;;5.82;;
73672;SDS011;61972;19.480;-99.240;2023-05-07T04:29:47;7.97;;;5.80;;
73672;SDS011;61972;19.480;-99.240;2023-05-07T04:32:16;10.10;;;6.38;;
73672;SDS011;61972;19.480;-99.240;2023-05-07T04:34:42;8.00;;;5.47;;
73672;SDS011;61972;19.480;-99.240;2023-05-07T04:37:09;7.82;;;5.90;;
73672;SDS011;61972;19.480;-99.240;2023-05-07T04:39:35;7.95;;;5.70;;
73672;SDS011;61972;19.480;-99.240;2023-05-07T04:42:01;8.77;;;5.53;;
73672;SDS011;61972;19.480;-99.240;2023-05-07T04:44:28;8.98;;;6.07;;
73672;SDS011;61972;19.480;-99.240;2023-05-07T04:46:56;8.33;;;5.83;;
73672;SDS011;61972;19.480;-99.240;2023-05-07T04:49:23;8.95;;;6.15;;
73672;SDS011;61972;19.480;-99.240;2023-05-07T04:51:49;10.95;;;6.20;;
73672;SDS011;61972;19.480;-99.240;2023-05-07T04:54:15;8.05;;;5.75;;
73672;SDS011;61972;19.480;-99.240;2023-05-07T04:56:41;7.65;;;5.82;;
73672;SDS011;61972;19.480;-99.240;2023-05-07T04:59:28;9.57;;;5.87;;
73672;SDS011;61972;19.480;-99.240;2023-05-07T05:02:01;7.45;;;5.50;;
73672;SDS011;61972;19.480;-99.240;2023-05-07T05:04:29;7.68;;;6.13;;
73672;SDS011;61972;19.480;-99.240;2023-05-07T05:06:55;7.65;;;5.47;;
73672;SDS011;61972;19.480;-99.240;2023-05-07T05:09:22;8.07;;;5.95;;
73672;SDS011;61972;19.480;-99.240;2023-05-07T05:11:48;8.10;;;5.33;;
73672;SDS011;61972;19.480;-99.240;2023-05-07T05:14:14;8.07;;;5.60;;
73672;SDS011;61972;19.480;-99.240;2023-05-07T05:16:40;9.63;;;5.78;;
73672;SDS011;61972;19.480;-99.240;2023-05-07T05:19:06;9.30;;;5.80;;
73672;SDS011;61972;19.480;-99.240;2023-05-07T05:21:32;7.97;;;5.80;;
73672;SDS011;61972;19.480;-99.240;2023-05-07T05:23:58;6.93;;;5.10;;
73672;SDS011;61972;19.480;-99.240;2023-05-07T05:26:25;9.75;;;5.25;;
73672;SDS011;61972;19.480;-99.240;2023-05-07T05:28:51;6.53;;;5.40;;
73672;SDS011;61972;19.480;-99.240;2023-05-07T05:31:17;8.27;;;5.28;;
73672;SDS011;61972;19.480;-99.240;2023-05-07T05:33:43;7.72;;;5.07;;
73672;SDS011;61972;19.480;-99.240;2023-05-07T05:36:10;8.03;;;5.53;;
73672;SDS011;61972;19.480;-99.240;2023-05-07T05:38:37;7.68;;;5.30;;
73672;SDS011;61972;19.480;-99.240;2023-05-07T05:41:03;8.48;;;5.38;;
73672;SDS011;61972;19.480;-99.240;2023-05-07T05:43:29;6.70;;;5.30;;
73672;SDS011;61972;19.480;-99.240;2023-05-07T05:45:56;7.60;;;4.88;;
73672;SDS011;61972;19.480;-99.240;2023-05-07T05:48:23;7.87;;;4.70;;
73672;SDS011;61972;19.480;-99.240;2023-05-07T05:50:49;7.00;;;5.32;;
73672;SDS011;61972;19.480;-99.240;2023-05-07T05:53:15;7.70;;;4.90;;
73672;SDS011;61972;19.480;-99.240;2023-05-07T05:55:41;6.53;;;4.85;;
73672;SDS011;61972;19.480;-99.240;2023-05-07T05:58:08;8.55;;;5.15;;
73672;SDS011;61972;19.480;-99.240;2023-05-07T06:00:34;8.50;;;5.57;;
73672;SDS011;61972;19.480;-99.240;2023-05-07T06:03:01;7.38;;;4.90;;
73672;SDS011;61972;19.480;-99.240;2023-05-07T06:05:27;7.22;;;5.13;;
73672;SDS011;61972;19.480;-99.240;2023-05-07T06:07:53;7.80;;;5.22;;
73672;SDS011;61972;19.480;-99.240;2023-05-07T06:10:19;8.77;;;5.05;;
73672;SDS011;61972;19.480;-99.240;2023-05-07T06:12:45;6.13;;;4.60;;
73672;SDS011;61972;19.480;-99.240;2023-05-07T06:15:11;9.45;;;5.03;;
73672;SDS011;61972;19.480;-99.240;2023-05-07T06:17:39;7.38;;;5.20;;
73672;SDS011;61972;19.480;-99.240;2023-05-07T06:20:05;10.15;;;5.10;;
73672;SDS011;61972;19.480;-99.240;2023-05-07T06:22:32;7.60;;;5.25;;
73672;SDS011;61972;19.480;-99.240;2023-05-07T06:24:58;8.83;;;5.10;;
73672;SDS011;61972;19.480;-99.240;2023-05-07T06:27:27;7.20;;;5.15;;
73672;SDS011;61972;19.480;-99.240;2023-05-07T06:29:59;7.70;;;5.30;;
73672;SDS011;61972;19.480;-99.240;2023-05-07T06:32:25;7.28;;;5.00;;
73672;SDS011;61972;19.480;-99.240;2023-05-07T06:34:51;8.52;;;5.20;;
73672;SDS011;61972;19.480;-99.240;2023-05-07T06:37:17;9.00;;;4.73;;
73672;SDS011;61972;19.480;-99.240;2023-05-07T06:39:44;8.10;;;5.50;;
73672;SDS011;61972;19.480;-99.240;2023-05-07T06:42:10;7.97;;;5.35;;
73672;SDS011;61972;19.480;-99.240;2023-05-07T06:44:36;9.85;;;5.00;;
73672;SDS011;61972;19.480;-99.240;2023-05-07T06:47:02;7.97;;;5.20;;
73672;SDS011;61972;19.480;-99.240;2023-05-07T06:49:28;7.13;;;5.20;;
73672;SDS011;61972;19.480;-99.240;2023-05-07T06:51:58;7.32;;;4.80;;
73672;SDS011;61972;19.480;-99.240;2023-05-07T06:54:28;9.43;;;5.50;;
73672;SDS011;61972;19.480;-99.240;2023-05-07T06:56:57;6.22;;;4.35;;
73672;SDS011;61972;19.480;-99.240;2023-05-07T06:59:24;7.95;;;4.93;;
73672;SDS011;61972;19.480;-99.240;2023-05-07T07:01:53;7.87;;;5.10;;
73672;SDS011;61972;19.480;-99.240;2023-05-07T07:04:19;5.97;;;4.70;;
73672;SDS011;61972;19.480;-99.240;2023-05-07T07:06:47;7.50;;;4.93;;
73672;SDS011;61972;19.480;-99.240;2023-05-07T07:09:13;9.10;;;5.30;;
73672;SDS011;61972;19.480;-99.240;2023-05-07T07:11:39;7.10;;;5.07;;
73672;SDS011;61972;19.480;-99.240;2023-05-07T07:14:05;8.20;;;5.23;;
73672;SDS011;61972;19.480;-99.240;2023-05-07T07:16:31;8.10;;;4.97;;
73672;SDS011;61972;19.480;-99.240;2023-05-07T07:18:58;8.73;;;5.38;;
73672;SDS011;61972;19.480;-99.240;2023-05-07T07:21:26;8.90;;;5.63;;
73672;SDS011;61972;19.480;-99.240;2023-05-07T07:23:52;6.88;;;5.55;;
73672;SDS011;61972;19.480;-99.240;2023-05-07T07:26:18;7.20;;;5.20;;
73672;SDS011;61972;19.480;-99.240;2023-05-07T07:28:45;7.97;;;5.28;;
73672;SDS011;61972;19.480;-99.240;2023-05-07T07:31:11;8.25;;;5.35;;
73672;SDS011;61972;19.480;-99.240;2023-05-07T07:33:38;7.18;;;5.40;;
73672;SDS011;61972;19.480;-99.240;2023-05-07T07:36:05;7.30;;;5.45;;
73672;SDS011;61972;19.480;-99.240;2023-05-07T07:38:35;7.13;;;5.00;;
73672;SDS011;61972;19.480;-99.240;2023-05-07T07:41:01;7.13;;;5.30;;
73672;SDS011;61972;19.480;-99.240;2023-05-07T07:43:27;7.15;;;5.20;;
73672;SDS011;61972;19.480;-99.240;2023-05-07T07:45:53;7.57;;;4.78;;
73672;SDS011;61972;19.480;-99.240;2023-05-07T07:48:20;7.53;;;4.97;;
73672;SDS011;61972;19.480;-99.240;2023-05-07T07:50:48;7.00;;;4.90;;
73672;SDS011;61972;19.480;-99.240;2023-05-07T07:53:16;7.75;;;5.40;;
73672;SDS011;61972;19.480;-99.240;2023-05-07T07:55:42;7.47;;;5.25;;
73672;SDS011;61972;19.480;-99.240;2023-05-07T07:58:09;7.45;;;4.93;;
73672;SDS011;61972;19.480;-99.240;2023-05-07T08:00:35;8.20;;;5.57;;
73672;SDS011;61972;19.480;-99.240;2023-05-07T08:03:01;6.30;;;4.90;;
73672;SDS011;61972;19.480;-99.240;2023-05-07T08:05:29;6.95;;;5.18;;
73672;SDS011;61972;19.480;-99.240;2023-05-07T08:07:56;8.20;;;5.63;;
73672;SDS011;61972;19.480;-99.240;2023-05-07T08:10:22;9.55;;;5.20;;
73672;SDS011;61972;19.480;-99.240;2023-05-07T08:12:48;7.90;;;5.38;;
73672;SDS011;61972;19.480;-99.240;2023-05-07T08:15:15;7.47;;;5.40;;
73672;SDS011;61972;19.480;-99.240;2023-05-07T08:17:41;9.95;;;5.97;;
73672;SDS011;61972;19.480;-99.240;2023-05-07T08:20:08;8.30;;;5.65;;
73672;SDS011;61972;19.480;-99.240;2023-05-07T08:22:35;8.75;;;5.70;;
73672;SDS011;61972;19.480;-99.240;2023-05-07T08:25:02;8.02;;;5.63;;
73672;SDS011;61972;19.480;-99.240;2023-05-07T08:27:31;7.53;;;5.73;;
73672;SDS011;61972;19.480;-99.240;2023-05-07T08:29:57;8.48;;;5.85;;
73672;SDS011;61972;19.480;-99.240;2023-05-07T08:32:23;10.60;;;6.03;;
73672;SDS011;61972;19.480;-99.240;2023-05-07T08:34:49;8.77;;;5.95;;
73672;SDS011;61972;19.480;-99.240;2023-05-07T08:37:15;7.72;;;5.78;;
73672;SDS011;61972;19.480;-99.240;2023-05-07T08:39:41;10.43;;;6.40;;
73672;SDS011;61972;19.480;-99.240;2023-05-07T08:42:07;9.90;;;6.60;;
73672;SDS011;61972;19.480;-99.240;2023-05-07T08:44:36;10.75;;;6.47;;
73672;SDS011;61972;19.480;-99.240;2023-05-07T08:47:06;9.57;;;6.20;;
73672;SDS011;61972;19.480;-99.240;2023-05-07T08:49:33;9.23;;;6.63;;
73672;SDS011;61972;19.480;-99.240;2023-05-07T08:52:03;9.00;;;6.20;;
73672;SDS011;61972;19.480;-99.240;2023-05-07T08:54:49;8.93;;;5.88;;
73672;SDS011;61972;19.480;-99.240;2023-05-07T08:57:15;8.57;;;6.25;;
73672;SDS011;61972;19.480;-99.240;2023-05-07T08:59:41;7.72;;;5.90;;
73672;SDS011;61972;19.480;-99.240;2023-05-07T09:02:08;7.78;;;5.93;;
73672;SDS011;61972;19.480;-99.240;2023-05-07T09:04:37;9.43;;;5.50;;
73672;SDS011;61972;19.480;-99.240;2023-05-07T09:07:10;9.82;;;6.15;;
73672;SDS011;61972;19.480;-99.240;2023-05-07T09:09:38;9.15;;;6.18;;
73672;SDS011;61972;19.480;-99.240;2023-05-07T09:12:04;7.80;;;5.70;;
73672;SDS011;61972;19.480;-99.240;2023-05-07T09:14:34;8.57;;;5.50;;
73672;SDS011;61972;19.480;-99.240;2023-05-07T09:17:00;9.43;;;5.77;;
73672;SDS011;61972;19.480;-99.240;2023-05-07T09:19:26;8.15;;;5.88;;
73672;SDS011;61972;19.480;-99.240;2023-05-07T09:22:02;6.82;;;5.35;;
73672;SDS011;61972;19.480;-99.240;2023-05-07T09:24:30;7.72;;;5.75;;
73672;SDS011;61972;19.480;-99.240;2023-05-07T09:27:00;7.65;;;5.70;;
73672;SDS011;61972;19.480;-99.240;2023-05-07T09:29:27;8.77;;;5.80;;
73672;SDS011;61972;19.480;-99.240;2023-05-07T09:31:55;7.50;;;5.50;;
73672;SDS011;61972;19.480;-99.240;2023-05-07T09:34:21;7.90;;;5.80;;
73672;SDS011;61972;19.480;-99.240;2023-05-07T09:36:47;10.27;;;5.57;;
73672;SDS011;61972;19.480;-99.240;2023-05-07T09:39:14;8.55;;;5.63;;
73672;SDS011;61972;19.480;-99.240;2023-05-07T09:41:43;9.80;;;5.40;;
73672;SDS011;61972;19.480;-99.240;2023-05-07T09:44:10;10.05;;;5.72;;
73672;SDS011;61972;19.480;-99.240;2023-05-07T09:46:36;10.00;;;5.43;;
73672;SDS011;61972;19.480;-99.240;2023-05-07T09:49:04;8.02;;;5.35;;
73672;SDS011;61972;19.480;-99.240;2023-05-07T09:51:47;8.15;;;5.30;;
73672;SDS011;61972;19.480;-99.240;2023-05-07T09:54:15;7.17;;;5.33;;
73672;SDS011;61972;19.480;-99.240;2023-05-07T09:56:43;10.00;;;5.70;;
73672;SDS011;61972;19.480;-99.240;2023-05-07T09:59:14;7.53;;;5.25;;
73672;SDS011;61972;19.480;-99.240;2023-05-07T10:01:42;7.10;;;5.15;;
73672;SDS011;61972;19.480;-99.240;2023-05-07T10:04:12;10.38;;;5.47;;
73672;SDS011;61972;19.480;-99.240;2023-05-07T10:06:39;8.40;;;5.00;;
73672;SDS011;61972;19.480;-99.240;2023-05-07T10:09:07;8.52;;;5.03;;
73672;SDS011;61972;19.480;-99.240;2023-05-07T10:11:34;8.15;;;5.22;;
73672;SDS011;61972;19.480;-99.240;2023-05-07T10:14:01;10.48;;;5.50;;
73672;SDS011;61972;19.480;-99.240;2023-05-07T10:16:31;7.63;;;5.50;;
73672;SDS011;61972;19.480;-99.240;2023-05-07T10:19:04;6.40;;;4.67;;
73672;SDS011;61972;19.480;-99.240;2023-05-07T10:21:32;8.45;;;4.82;;
73672;SDS011;61972;19.480;-99.240;2023-05-07T10:24:16;7.28;;;5.20;;
73672;SDS011;61972;19.480;-99.240;2023-05-07T10:26:51;8.68;;;4.90;;
73672;SDS011;61972;19.480;-99.240;2023-05-07T10:29:21;7.90;;;4.70;;
73672;SDS011;61972;19.480;-99.240;2023-05-07T10:34:40;7.00;;;4.70;;
73672;SDS011;61972;19.480;-99.240;2023-05-07T10:37:09;7.57;;;4.88;;
73672;SDS011;61972;19.480;-99.240;2023-05-07T10:39:37;7.60;;;4.90;;
73672;SDS011;61972;19.480;-99.240;2023-05-07T10:42:09;6.97;;;4.72;;
73672;SDS011;61972;19.480;-99.240;2023-05-07T10:44:37;7.60;;;4.70;;
73672;SDS011;61972;19.480;-99.240;2023-05-07T10:47:06;6.53;;;4.60;;
73672;SDS011;61972;19.480;-99.240;2023-05-07T10:50:19;9.73;;;4.68;;
73672;SDS011;61972;19.480;-99.240;2023-05-07T10:52:22;7.65;;;4.32;;
73672;SDS011;61972;19.480;-99.240;2023-05-07T10:55:36;7.95;;;4.53;;
73672;SDS011;61972;19.480;-99.240;2023-05-07T10:57:40;9.10;;;4.40;;
73672;SDS011;61972;19.480;-99.240;2023-05-07T11:00:48;6.50;;;4.90;;
73672;SDS011;61972;19.480;-99.240;2023-05-07T11:05:28;7.18;;;4.10;;
73672;SDS011;61972;19.480;-99.240;2023-05-07T11:07:56;9.38;;;4.38;;
73672;SDS011;61972;19.480;-99.240;2023-05-07T11:10:46;8.37;;;4.10;;
73672;SDS011;61972;19.480;-99.240;2023-05-07T11:13:46;7.68;;;4.60;;
73672;SDS011;61972;19.480;-99.240;2023-05-07T11:16:20;6.18;;;4.47;;
73672;SDS011;61972;19.480;-99.240;2023-05-07T11:18:49;5.85;;;4.13;;
73672;SDS011;61972;19.480;-99.240;2023-05-07T11:21:31;6.13;;;4.15;;
73672;SDS011;61972;19.480;-99.240;2023-05-07T11:24:02;6.40;;;4.53;;
73672;SDS011;61972;19.480;-99.240;2023-05-07T11:26:29;8.15;;;4.28;;
73672;SDS011;61972;19.480;-99.240;2023-05-07T11:29:10;5.88;;;3.97;;
73672;SDS011;61972;19.480;-99.240;2023-05-07T11:31:37;5.82;;;4.10;;
73672;SDS011;61972;19.480;-99.240;2023-05-07T11:34:03;5.70;;;4.07;;
73672;SDS011;61972;19.480;-99.240;2023-05-07T11:36:31;6.27;;;3.90;;
73672;SDS011;61972;19.480;-99.240;2023-05-07T11:38:58;6.70;;;4.20;;
73672;SDS011;61972;19.480;-99.240;2023-05-07T11:41:36;6.78;;;4.22;;
73672;SDS011;61972;19.480;-99.240;2023-05-07T11:44:03;5.72;;;4.05;;
73672;SDS011;61972;19.480;-99.240;2023-05-07T11:46:29;5.50;;;3.85;;
73672;SDS011;61972;19.480;-99.240;2023-05-07T11:48:55;7.37;;;3.93;;
73672;SDS011;61972;19.480;-99.240;2023-05-07T11:51:23;6.13;;;3.92;;
73672;SDS011;61972;19.480;-99.240;2023-05-07T11:53:51;6.28;;;3.97;;
73672;SDS011;61972;19.480;-99.240;2023-05-07T11:56:18;5.72;;;4.07;;
73672;SDS011;61972;19.480;-99.240;2023-05-07T11:58:45;6.25;;;4.10;;
73672;SDS011;61972;19.480;-99.240;2023-05-07T12:01:12;7.17;;;4.10;;
73672;SDS011;61972;19.480;-99.240;2023-05-07T12:03:39;6.28;;;3.55;;
73672;SDS011;61972;19.480;-99.240;2023-05-07T12:06:10;5.90;;;4.30;;
73672;SDS011;61972;19.480;-99.240;2023-05-07T12:08:37;4.90;;;3.60;;
73672;SDS011;61972;19.480;-99.240;2023-05-07T12:11:08;5.63;;;3.65;;
73672;SDS011;61972;19.480;-99.240;2023-05-07T12:13:38;5.57;;;3.73;;
73672;SDS011;61972;19.480;-99.240;2023-05-07T12:16:04;5.93;;;3.33;;
73672;SDS011;61972;19.480;-99.240;2023-05-07T12:18:32;5.25;;;3.80;;
73672;SDS011;61972;19.480;-99.240;2023-05-07T12:20:59;5.72;;;3.67;;
73672;SDS011;61972;19.480;-99.240;2023-05-07T12:23:26;6.72;;;3.72;;
73672;SDS011;61972;19.480;-99.240;2023-05-07T12:25:52;5.20;;;3.50;;
73672;SDS011;61972;19.480;-99.240;2023-05-07T12:28:18;6.28;;;4.10;;
73672;SDS011;61972;19.480;-99.240;2023-05-07T12:30:46;5.07;;;3.88;;
73672;SDS011;61972;19.480;-99.240;2023-05-07T12:33:23;5.45;;;3.80;;
73672;SDS011;61972;19.480;-99.240;2023-05-07T12:35:52;5.63;;;3.85;;
73672;SDS011;61972;19.480;-99.240;2023-05-07T12:38:19;4.80;;;3.30;;
73672;SDS011;61972;19.480;-99.240;2023-05-07T12:40:46;4.85;;;3.63;;
73672;SDS011;61972;19.480;-99.240;2023-05-07T12:43:25;5.35;;;3.72;;
73672;SDS011;61972;19.480;-99.240;2023-05-07T12:45:53;6.05;;;3.97;;
73672;SDS011;61972;19.480;-99.240;2023-05-07T12:48:21;4.57;;;3.60;;
73672;SDS011;61972;19.480;-99.240;2023-05-07T12:50:51;5.20;;;3.50;;
73672;SDS011;61972;19.480;-99.240;2023-05-07T12:53:20;5.25;;;3.38;;
73672;SDS011;61972;19.480;-99.240;2023-05-07T12:55:48;7.05;;;3.80;;
73672;SDS011;61972;19.480;-99.240;2023-05-07T12:58:20;5.18;;;3.30;;
73672;SDS011;61972;19.480;-99.240;2023-05-07T13:00:54;4.78;;;3.70;;
73672;SDS011;61972;19.480;-99.240;2023-05-07T13:05:54;4.45;;;3.30;;
73672;SDS011;61972;19.480;-99.240;2023-05-07T13:08:28;4.97;;;3.58;;
73672;SDS011;61972;19.480;-99.240;2023-05-07T13:10:58;5.15;;;3.60;;
73672;SDS011;61972;19.480;-99.240;2023-05-07T13:13:29;5.68;;;3.88;;
73672;SDS011;61972;19.480;-99.240;2023-05-07T13:15:58;5.20;;;3.57;;
73672;SDS011;61972;19.480;-99.240;2023-05-07T13:18:25;5.43;;;3.15;;
73672;SDS011;61972;19.480;-99.240;2023-05-07T13:20:52;5.68;;;3.70;;
73672;SDS011;61972;19.480;-99.240;2023-05-07T13:23:19;5.50;;;3.35;;
73672;SDS011;61972;19.480;-99.240;2023-05-07T13:25:45;4.72;;;3.50;;
73672;SDS011;61972;19.480;-99.240;2023-05-07T13:28:13;5.03;;;3.50;;
73672;SDS011;61972;19.480;-99.240;2023-05-07T13:30:39;4.70;;;3.30;;
73672;SDS011;61972;19.480;-99.240;2023-05-07T13:33:08;5.10;;;3.80;;
73672;SDS011;61972;19.480;-99.240;2023-05-07T13:35:35;4.72;;;3.45;;
73672;SDS011;61972;19.480;-99.240;2023-05-07T13:38:01;5.20;;;3.60;;
73672;SDS011;61972;19.480;-99.240;2023-05-07T13:40:27;4.30;;;3.00;;
73672;SDS011;61972;19.480;-99.240;2023-05-07T13:42:53;4.50;;;3.40;;
73672;SDS011;61972;19.480;-99.240;2023-05-07T13:45:19;5.35;;;3.80;;
73672;SDS011;61972;19.480;-99.240;2023-05-07T13:47:46;5.72;;;3.47;;
73672;SDS011;61972;19.480;-99.240;2023-05-07T13:50:14;4.43;;;3.25;;
73672;SDS011;61972;19.480;-99.240;2023-05-07T13:52:41;4.53;;;3.30;;
73672;SDS011;61972;19.480;-99.240;2023-05-07T13:55:08;4.55;;;3.30;;
73672;SDS011;61972;19.480;-99.240;2023-05-07T13:57:38;5.28;;;3.40;;
73672;SDS011;61972;19.480;-99.240;2023-05-07T14:00:04;4.72;;;3.22;;
73672;SDS011;61972;19.480;-99.240;2023-05-07T14:02:31;6.53;;;3.70;;
73672;SDS011;61972;19.480;-99.240;2023-05-07T14:04:57;4.43;;;3.00;;
73672;SDS011;61972;19.480;-99.240;2023-05-07T14:07:23;5.53;;;3.13;;
73672;SDS011;61972;19.480;-99.240;2023-05-07T14:09:49;4.95;;;3.45;;
73672;SDS011;61972;19.480;-99.240;2023-05-07T14:12:15;5.75;;;3.20;;
73672;SDS011;61972;19.480;-99.240;2023-05-07T14:14:41;4.70;;;3.22;;
73672;SDS011;61972;19.480;-99.240;2023-05-07T14:17:07;4.33;;;2.97;;
73672;SDS011;61972;19.480;-99.240;2023-05-07T14:19:33;4.55;;;3.25;;
73672;SDS011;61972;19.480;-99.240;2023-05-07T14:21:59;4.50;;;3.28;;
73672;SDS011;61972;19.480;-99.240;2023-05-07T14:24:25;4.75;;;3.15;;
73672;SDS011;61972;19.480;-99.240;2023-05-07T14:26:51;5.63;;;3.23;;
73672;SDS011;61972;19.480;-99.240;2023-05-07T14:29:17;4.38;;;3.20;;
73672;SDS011;61972;19.480;-99.240;2023-05-07T14:31:44;4.93;;;3.38;;
73672;SDS011;61972;19.480;-99.240;2023-05-07T14:34:11;4.40;;;3.17;;